Time;durP1;ratioP1;P1;durP2;ratioP2;P2;SDS_P1;SDS_P2;PMS_P1;PMS_P2;Temp;Humidity;BMP_temperature;BMP_pressure;BME280_temperature;BME280_humidity;BME280_pressure;Samples;Min_cycle;Max_cycle;Signal;HPM_P1;HPM_P2
2022/08/05 00:01:13;;;;;;;26.83;18.88;;;;;;;23.96;48.51;100352.97;5051467;28;20032;-49
2022/08/05 00:03:39;;;;;;;22.77;18.38;;;;;;;23.84;48.50;100347.22;5048722;28;20485;-51
2022/08/05 00:06:05;;;;;;;26.00;19.42;;;;;;;23.85;48.43;100348.09;5051400;28;20087;-51
2022/08/05 00:08:30;;;;;;;23.23;18.20;;;;;;;23.75;49.51;100340.22;5031092;28;20072;-52
2022/08/05 00:10:57;;;;;;;28.17;18.33;;;;;;;23.65;49.60;100346.88;5031162;28;20379;-53
2022/08/05 00:13:23;;;;;;;22.65;17.98;;;;;;;23.56;49.97;100342.59;5030782;28;20474;-50
2022/08/05 00:15:48;;;;;;;25.70;19.30;;;;;;;23.50;49.98;100341.47;5030840;28;20037;-50
2022/08/05 00:18:14;;;;;;;29.75;19.02;;;;;;;23.45;50.65;100346.69;5046741;28;20191;-49
2022/08/05 00:20:39;;;;;;;24.00;18.45;;;;;;;23.48;49.95;100345.47;5031373;28;20037;-51
2022/08/05 00:23:05;;;;;;;23.80;19.30;;;;;;;23.50;49.86;100344.22;5031079;28;20462;-49
2022/08/05 00:25:30;;;;;;;26.10;17.80;;;;;;;23.47;50.37;100343.78;5035873;28;20464;-50
2022/08/05 00:27:56;;;;;;;21.88;18.70;;;;;;;23.44;49.89;100349.66;5049046;28;20034;-49
2022/08/05 00:30:21;;;;;;;23.98;20.08;;;;;;;23.35;49.97;100332.53;5057118;28;20106;-53
2022/08/05 00:32:48;;;;;;;25.42;19.70;;;;;;;23.44;50.02;100344.19;5057002;28;20454;-54
2022/08/05 00:35:14;;;;;;;27.63;20.08;;;;;;;23.44;49.97;100344.19;5037581;28;20076;-52
2022/08/05 00:37:39;;;;;;;26.05;19.55;;;;;;;23.41;49.77;100350.88;5047675;28;20538;-49
2022/08/05 00:40:05;;;;;;;27.15;22.15;;;;;;;23.46;49.96;100342.09;5057647;28;20123;-49
2022/08/05 00:42:36;;;;;;;26.35;20.30;;;;;;;23.49;50.00;100348.00;5057500;28;20025;-51
2022/08/05 00:45:05;;;;;;;25.17;19.88;;;;;;;23.39;49.93;100342.03;5057127;28;20067;-51
2022/08/05 00:47:31;;;;;;;28.88;21.50;;;;;;;23.40;50.28;100340.97;5047290;28;20056;-53
2022/08/05 00:49:56;;;;;;;25.33;20.73;;;;;;;23.37;50.38;100344.94;5040190;28;20460;-51
2022/08/05 00:52:22;;;;;;;24.77;21.25;;;;;;;23.40;50.08;100342.88;5056890;28;20486;-55
2022/08/05 00:54:47;;;;;;;26.67;20.50;;;;;;;23.45;50.05;100346.69;5057138;28;20021;-52
2022/08/05 00:57:13;;;;;;;29.10;21.15;;;;;;;23.53;49.88;100339.41;5050195;28;20425;-53
2022/08/05 00:59:39;;;;;;;23.20;19.35;;;;;;;23.51;50.04;100342.34;5037353;28;20043;-52
2022/08/05 01:02:04;;;;;;;25.42;20.63;;;;;;;23.51;50.23;100347.81;5037028;28;20037;-52
2022/08/05 01:04:29;;;;;;;29.55;22.15;;;;;;;23.51;49.98;100348.66;5037132;28;20148;-53
2022/08/05 01:06:55;;;;;;;30.48;20.40;;;;;;;23.50;50.27;100340.66;5040986;28;20083;-53
2022/08/05 01:09:21;;;;;;;29.02;20.98;;;;;;;23.51;50.06;100350.53;5056865;28;20368;-59
2022/08/05 01:11:52;;;;;;;30.08;21.70;;;;;;;23.55;50.05;100357.28;5037228;28;20436;-55
2022/08/05 01:14:27;;;;;;;28.58;20.92;;;;;;;23.51;50.19;100343.19;5036946;28;20037;-54
2022/08/05 01:17:02;;;;;;;29.67;22.30;;;;;;;23.54;50.34;100350.13;5039037;28;20075;-54
2022/08/05 01:19:40;;;;;;;31.02;21.20;;;;;;;23.58;50.24;100343.22;5056699;28;20056;-54
2022/08/05 01:22:09;;;;;;;31.85;20.30;;;;;;;23.53;50.41;100344.88;5056948;28;20033;-55
2022/08/05 01:24:50;;;;;;;31.92;21.15;;;;;;;23.58;50.11;100348.69;5057112;28;20128;-54
2022/08/05 01:27:43;;;;;;;23.70;20.88;;;;;;;23.60;49.64;100346.63;5050007;28;20602;-55
2022/08/05 01:30:11;;;;;;;25.60;20.95;;;;;;;23.46;50.29;100345.66;5037055;28;20037;-49
2022/08/05 01:32:39;;;;;;;28.02;20.52;;;;;;;23.36;50.94;100351.44;5056395;28;20049;-52
2022/08/05 01:35:17;;;;;;;30.17;20.52;;;;;;;23.39;51.05;100357.56;5053447;28;20078;-52
2022/08/05 01:37:48;;;;;;;27.55;20.77;;;;;;;23.27;50.92;100349.03;5042136;28;20033;-55
2022/08/05 01:40:16;;;;;;;27.48;20.77;;;;;;;23.22;51.47;100350.44;5053617;28;20052;-50
2022/08/05 01:42:44;;;;;;;26.33;21.38;;;;;;;23.25;51.31;100341.06;5053557;28;20036;-63
2022/08/05 01:45:12;;;;;;;29.00;20.73;;;;;;;23.17;51.52;100346.63;5054037;28;20111;-53
2022/08/05 01:47:38;;;;;;;26.55;20.33;;;;;;;23.12;51.91;100340.88;5045036;28;20539;-51
2022/08/05 01:50:08;;;;;;;28.02;21.60;;;;;;;23.09;52.13;100345.69;5033095;28;20036;-53
2022/08/05 01:52:36;;;;;;;25.70;20.23;;;;;;;23.06;52.65;100354.28;5033185;28;20409;-53
2022/08/05 01:55:07;;;;;;;27.02;21.85;;;;;;;23.11;51.88;100347.38;5033467;28;20247;-51
2022/08/05 01:57:38;;;;;;;26.05;21.48;;;;;;;23.14;51.74;100349.72;5039733;28;20818;-52
2022/08/05 02:00:06;;;;;;;27.40;21.85;;;;;;;23.16;51.93;100342.19;5033109;28;20496;-53
2022/08/05 02:02:35;;;;;;;29.40;21.25;;;;;;;23.19;51.55;100342.63;5033076;28;20052;-52
2022/08/05 02:05:05;;;;;;;26.08;21.70;;;;;;;23.25;51.76;100342.88;5033345;28;20354;-53
2022/08/05 02:07:32;;;;;;;28.35;20.83;;;;;;;23.21;51.78;100337.81;5032970;28;20052;-49
2022/08/05 02:09:58;;;;;;;24.58;20.08;;;;;;;23.17;52.15;100342.00;5043243;28;20452;-55
2022/08/05 02:12:36;;;;;;;29.63;20.95;;;;;;;23.27;52.26;100344.44;5032900;28;20421;-53
2022/08/05 02:15:33;;;;;;;26.48;21.02;;;;;;;23.37;51.64;100338.66;5032991;28;20094;-54
2022/08/05 02:18:05;;;;;;;26.90;19.70;;;;;;;23.32;52.30;100341.94;5033228;28;20033;-48
2022/08/05 02:20:40;;;;;;;28.38;20.90;;;;;;;23.32;52.13;100352.88;5032495;28;20098;-52
2022/08/05 02:23:09;;;;;;;24.55;19.70;;;;;;;23.31;51.91;100345.72;5033204;28;20032;-54
2022/08/05 02:25:38;;;;;;;26.92;20.80;;;;;;;23.35;51.92;100351.66;5032648;28;20037;-52
2022/08/05 02:28:06;;;;;;;28.50;21.17;;;;;;;23.41;52.07;100355.50;5035248;28;20092;-53
2022/08/05 02:30:38;;;;;;;27.27;20.48;;;;;;;23.48;51.99;100359.97;5052802;28;20116;-53
2022/08/05 02:33:04;;;;;;;25.65;20.25;;;;;;;23.51;52.07;100361.47;5052393;28;20183;-56
2022/08/05 02:35:34;;;;;;;29.98;22.77;;;;;;;23.68;50.83;100369.41;5043071;28;20479;-55
2022/08/05 02:38:00;;;;;;;28.23;21.00;;;;;;;23.65;51.05;100367.91;5034251;28;20045;-55
2022/08/05 02:40:26;;;;;;;33.10;21.13;;;;;;;23.64;51.11;100364.34;5052076;28;20473;-52
2022/08/05 02:42:54;;;;;;;31.05;21.52;;;;;;;23.71;50.89;100371.75;5035611;28;20040;-51
2022/08/05 02:45:21;;;;;;;27.90;22.00;;;;;;;23.74;50.71;100366.69;5032865;28;20474;-52
2022/08/05 02:47:48;;;;;;;25.83;22.20;;;;;;;23.84;50.50;100366.38;5031663;28;20034;-55
2022/08/05 02:50:14;;;;;;;25.45;21.42;;;;;;;23.83;50.67;100366.56;5032510;28;20030;-52
2022/08/05 02:52:40;;;;;;;28.83;22.90;;;;;;;23.87;50.68;100379.66;5032544;28;20103;-52
2022/08/05 02:55:08;;;;;;;27.25;22.17;;;;;;;23.98;50.38;100382.88;5032209;28;20120;-52
2022/08/05 02:57:37;;;;;;;28.83;21.13;;;;;;;24.07;49.84;100387.19;5032019;28;20021;-53
2022/08/05 03:00:04;;;;;;;25.52;22.15;;;;;;;24.13;49.57;100380.94;5050173;28;20029;-54
2022/08/05 03:02:38;;;;;;;26.13;21.80;;;;;;;24.26;50.10;100384.78;5052075;28;20476;-51
2022/08/05 03:05:08;;;;;;;29.02;22.05;;;;;;;24.34;49.58;100381.88;5041902;28;20033;-53
2022/08/05 03:07:34;;;;;;;29.65;21.90;;;;;;;24.42;48.96;100387.22;5031874;28;20449;-53
2022/08/05 03:10:01;;;;;;;29.77;22.98;;;;;;;24.55;48.76;100369.16;5049586;28;20045;-52
2022/08/05 03:12:29;;;;;;;27.45;21.77;;;;;;;24.77;48.67;100384.44;5040343;28;20489;-52
2022/08/05 03:14:55;;;;;;;28.33;22.45;;;;;;;24.84;48.11;100381.75;5031769;28;20106;-53
2022/08/05 03:17:20;;;;;;;27.48;22.92;;;;;;;24.89;47.87;100386.63;5031058;28;20053;-52
2022/08/05 03:19:46;;;;;;;29.77;22.13;;;;;;;24.94;48.04;100381.38;5047806;28;20032;-55
2022/08/05 03:22:11;;;;;;;26.30;22.60;;;;;;;24.99;47.80;100392.53;5051893;28;20037;-54
2022/08/05 03:24:37;;;;;;;29.05;22.50;;;;;;;25.05;47.84;100388.97;5050341;28;20033;-54
2022/08/05 03:27:03;;;;;;;30.30;22.15;;;;;;;25.11;47.52;100386.47;5046026;28;20029;-52
2022/08/05 03:29:28;;;;;;;28.92;22.52;;;;;;;25.25;47.55;100379.13;5044357;28;20047;-55
2022/08/05 03:31:54;;;;;;;27.38;21.63;;;;;;;25.40;47.04;100381.69;5051613;28;20068;-51
2022/08/05 03:34:20;;;;;;;30.58;22.33;;;;;;;25.52;46.84;100385.50;5051315;28;20033;-52
2022/08/05 03:36:45;;;;;;;26.63;21.73;;;;;;;25.68;46.79;100387.00;5051198;28;20025;-53
2022/08/05 03:39:11;;;;;;;28.33;20.67;;;;;;;25.79;46.22;100393.75;5041011;28;20096;-54
2022/08/05 03:41:36;;;;;;;26.65;22.17;;;;;;;25.88;45.96;100398.00;5031844;28;20029;-53
2022/08/05 03:44:02;;;;;;;29.33;22.05;;;;;;;26.00;45.94;100400.09;5050035;28;20029;-57
2022/08/05 03:46:28;;;;;;;26.23;21.00;;;;;;;26.05;45.49;100392.91;5051014;28;20068;-48
2022/08/05 03:48:53;;;;;;;27.10;22.30;;;;;;;26.12;45.50;100408.50;5043445;28;20060;-51
2022/08/05 03:51:23;;;;;;;27.45;22.00;;;;;;;26.16;45.43;100412.50;5031536;28;20037;-63
2022/08/05 03:53:48;;;;;;;29.55;22.98;;;;;;;26.08;44.99;100413.59;5031348;28;20045;-55
2022/08/05 03:56:27;;;;;;;29.35;23.77;;;;;;;26.04;45.55;100415.06;5030985;28;20075;-52
2022/08/05 03:58:58;;;;;;;26.92;22.00;;;;;;;25.90;46.07;100422.44;5038621;28;20029;-55
2022/08/05 04:01:25;;;;;;;28.85;21.95;;;;;;;25.83;46.09;100410.66;5031062;28;20129;-55
2022/08/05 04:03:51;;;;;;;30.60;23.02;;;;;;;25.89;45.62;100421.63;5029684;28;20461;-58
2022/08/05 04:06:17;;;;;;;28.20;22.13;;;;;;;25.87;46.02;100426.47;5031218;28;20029;-56
2022/08/05 04:08:44;;;;;;;26.30;21.40;;;;;;;25.85;46.11;100427.72;5034806;28;20017;-56
2022/08/05 04:11:10;;;;;;;28.45;21.95;;;;;;;25.89;46.06;100426.25;5038073;28;20057;-53
2022/08/05 04:13:40;;;;;;;31.58;22.45;;;;;;;26.04;45.68;100428.78;5040667;28;20408;-54
2022/08/05 04:16:07;;;;;;;30.15;22.65;;;;;;;26.11;45.57;100424.16;5050191;28;20115;-50
2022/08/05 04:18:33;;;;;;;31.92;22.27;;;;;;;26.21;45.47;100432.81;5046578;28;20029;-48
2022/08/05 04:20:59;;;;;;;31.63;23.92;;;;;;;26.27;45.28;100435.75;5029739;28;20452;-49
2022/08/05 04:23:27;;;;;;;33.30;23.80;;;;;;;26.22;45.22;100440.00;5030008;28;20479;-49
2022/08/05 04:25:52;;;;;;;29.80;24.05;;;;;;;26.14;45.29;100437.44;5030508;28;20389;-49
2022/08/05 04:28:19;;;;;;;36.15;25.17;;;;;;;26.07;45.28;100433.88;5035311;28;20049;-53
2022/08/05 04:30:45;;;;;;;30.27;23.20;;;;;;;26.01;45.65;100434.69;5050159;28;20475;-50
2022/08/05 04:33:12;;;;;;;31.50;23.90;;;;;;;25.94;45.49;100429.22;5046756;28;20075;-50
2022/08/05 04:35:38;;;;;;;30.85;22.80;;;;;;;25.98;45.32;100426.88;5030096;28;20041;-49
2022/08/05 04:38:04;;;;;;;31.38;22.00;;;;;;;26.14;45.38;100434.69;5032704;28;20056;-53
2022/08/05 04:40:35;;;;;;;31.20;21.35;;;;;;;26.48;44.80;100435.50;5050638;28;20035;-56
2022/08/05 04:43:01;;;;;;;35.05;21.15;;;;;;;26.73;43.47;100421.06;5050142;28;20098;-56
2022/08/05 04:45:26;;;;;;;23.65;19.38;;;;;;;27.04;42.60;100422.28;5050424;28;20476;-55
2022/08/05 04:47:52;;;;;;;27.85;19.52;;;;;;;27.30;42.48;100425.09;5049911;28;20114;-59
2022/08/05 04:50:18;;;;;;;29.48;19.92;;;;;;;27.48;41.66;100421.56;5030742;28;20034;-52
2022/08/05 04:52:44;;;;;;;25.10;19.63;;;;;;;27.58;41.67;100418.38;5030341;28;20053;-52
2022/08/05 04:55:10;;;;;;;23.35;19.38;;;;;;;27.77;41.49;100430.31;5030511;28;20029;-53
2022/08/05 04:57:35;;;;;;;23.60;18.85;;;;;;;27.94;40.69;100425.09;5030470;28;20041;-54
2022/08/05 05:00:03;;;;;;;22.92;18.30;;;;;;;28.09;40.43;100433.00;5047922;28;20033;-50
2022/08/05 05:02:29;;;;;;;24.85;18.30;;;;;;;28.15;40.32;100425.75;5033806;28;20108;-50
2022/08/05 05:04:55;;;;;;;23.60;17.65;;;;;;;28.20;39.90;100424.03;5049993;28;20111;-54
2022/08/05 05:07:21;;;;;;;19.27;16.77;;;;;;;28.26;39.70;100429.72;5037477;28;20037;-59
2022/08/05 05:09:47;;;;;;;27.60;16.40;;;;;;;28.33;39.69;100430.47;5038535;28;20049;-59
2022/08/05 05:12:13;;;;;;;21.35;18.10;;;;;;;28.40;40.10;100431.25;5053373;28;20916;-55
2022/08/05 05:14:38;;;;;;;23.83;18.10;;;;;;;28.38;39.64;100424.31;5052954;28;20106;-57
2022/08/05 05:17:03;;;;;;;26.73;17.42;;;;;;;28.41;39.87;100432.94;5048274;28;20034;-55
2022/08/05 05:19:29;;;;;;;25.27;18.10;;;;;;;28.49;39.44;100432.66;5032316;28;20029;-59
2022/08/05 05:21:55;;;;;;;25.25;17.55;;;;;;;28.62;39.26;100431.66;5043032;28;20087;-59
2022/08/05 05:24:20;;;;;;;23.23;18.30;;;;;;;28.69;39.02;100422.47;5053187;28;20028;-57
2022/08/05 05:26:47;;;;;;;24.30;17.20;;;;;;;28.70;39.09;100435.16;5051558;28;20033;-56
2022/08/05 05:29:12;;;;;;;23.63;16.88;;;;;;;28.71;38.72;100423.94;5040827;28;20116;-56
2022/08/05 05:31:38;;;;;;;27.58;16.50;;;;;;;28.72;38.79;100436.63;5053225;28;20139;-54
2022/08/05 05:34:03;;;;;;;20.25;15.77;;;;;;;28.48;38.44;100386.03;5040976;28;20168;-56
2022/08/05 05:36:30;;;;;;;25.27;14.75;;;;;;;28.84;37.99;100438.63;5038562;28;20110;-58
2022/08/05 05:38:55;;;;;;;21.35;15.40;;;;;;;28.89;37.64;100430.50;5033712;28;20060;-61
2022/08/05 05:41:21;;;;;;;20.65;14.27;;;;;;;29.01;37.52;100422.31;5033566;28;20488;-59
2022/08/05 05:43:46;;;;;;;19.85;15.07;;;;;;;29.22;37.09;100427.31;5033273;28;20025;-56
2022/08/05 05:46:12;;;;;;;19.75;13.50;;;;;;;29.55;35.83;100427.94;5046947;28;20036;-58
2022/08/05 05:48:40;;;;;;;19.05;12.88;;;;;;;30.00;34.82;100428.50;5036436;28;20130;-57
2022/08/05 05:51:06;;;;;;;22.27;13.80;;;;;;;31.14;32.83;100433.81;5033329;28;20032;-59
2022/08/05 05:53:31;;;;;;;16.52;11.73;;;;;;;33.02;29.74;100431.84;5053176;28;20025;-57
2022/08/05 05:55:57;;;;;;;16.55;11.88;;;;;;;34.33;27.82;100427.19;5053399;28;20067;-59
2022/08/05 05:58:22;;;;;;;14.25;10.63;;;;;;;35.36;25.85;100423.22;5052436;28;20211;-56
2022/08/05 06:00:48;;;;;;;14.00;11.02;;;;;;;36.44;24.21;100432.66;5052981;28;20075;-53
2022/08/05 06:03:13;;;;;;;12.80;10.18;;;;;;;37.08;22.77;100430.22;5053084;28;20029;-58
2022/08/05 06:05:38;;;;;;;14.82;10.35;;;;;;;37.91;21.91;100433.25;5052712;28;20025;-57
2022/08/05 06:08:04;;;;;;;15.85;10.43;;;;;;;38.68;21.03;100439.19;5051632;28;20082;-59
2022/08/05 06:10:30;;;;;;;12.25;10.68;;;;;;;39.68;19.67;100440.34;5052880;28;20056;-58
2022/08/05 06:12:56;;;;;;;11.85;9.77;;;;;;;40.52;18.94;100436.91;5053228;28;20044;-56
2022/08/05 06:15:21;;;;;;;13.70;10.02;;;;;;;40.52;18.75;100436.91;5052785;28;20029;-57
2022/08/05 06:17:47;;;;;;;10.88;9.30;;;;;;;40.60;17.97;100433.34;5039901;28;20047;-60
2022/08/05 06:20:12;;;;;;;14.32;10.27;;;;;;;40.92;17.88;100440.00;5032605;28;20121;-60
2022/08/05 06:22:37;;;;;;;14.63;9.80;;;;;;;41.37;17.36;100438.44;5041970;28;20056;-54
2022/08/05 06:25:04;;;;;;;10.95;9.55;;;;;;;42.74;16.03;100431.47;5050420;28;20430;-58
2022/08/05 06:27:30;;;;;;;17.08;10.00;;;;;;;43.25;15.59;100439.50;5050850;28;20033;-59
2022/08/05 06:29:55;;;;;;;13.40;9.20;;;;;;;45.58;13.69;100445.19;5050626;28;20083;-58
2022/08/05 06:32:21;;;;;;;12.55;10.27;;;;;;;47.80;11.63;100455.09;5052336;28;20029;-55
2022/08/05 06:34:46;;;;;;;13.73;9.65;;;;;;;49.04;11.01;100439.91;5052450;28;20076;-59
2022/08/05 06:37:12;;;;;;;10.85;8.23;;;;;;;50.87;9.50;100462.78;5050230;28;20021;-57
2022/08/05 06:39:38;;;;;;;10.18;8.40;;;;;;;51.68;8.94;100448.34;5050443;28;20503;-55
2022/08/05 06:42:04;;;;;;;12.13;8.02;;;;;;;51.89;8.54;100449.78;5052147;28;20086;-57
2022/08/05 06:44:29;;;;;;;11.55;9.35;;;;;;;52.11;8.45;100451.63;5043599;28;20080;-62
2022/08/05 06:46:56;;;;;;;10.63;9.30;;;;;;;53.13;7.92;100460.91;5038276;28;20041;-59
2022/08/05 06:49:21;;;;;;;14.95;8.98;;;;;;;53.50;7.20;100456.94;5046129;28;20013;-59
2022/08/05 06:51:47;;;;;;;11.40;8.88;;;;;;;53.86;7.28;100452.53;5049123;28;20043;-59
2022/08/05 06:54:13;;;;;;;11.55;8.95;;;;;;;54.16;7.14;100451.34;5033016;28;20026;-60
2022/08/05 06:56:38;;;;;;;12.95;8.75;;;;;;;54.31;7.19;100447.25;5031847;28;20373;-59
2022/08/05 06:59:04;;;;;;;11.43;8.93;;;;;;;54.74;7.12;100454.97;5032322;28;20409;-60
2022/08/05 07:01:30;;;;;;;10.90;9.57;;;;;;;55.26;6.56;100449.88;5037138;28;20254;-63
2022/08/05 07:03:55;;;;;;;10.60;8.93;;;;;;;55.02;6.16;100452.41;5047531;28;20092;-60
2022/08/05 07:06:22;;;;;;;14.95;9.40;;;;;;;55.48;6.12;100451.41;5052040;28;20056;-61
2022/08/05 07:08:47;;;;;;;9.82;8.82;;;;;;;55.89;6.07;100460.56;5051317;28;20040;-61
2022/08/05 07:11:14;;;;;;;10.63;9.52;;;;;;;56.37;5.57;100458.94;5050938;28;20053;-59
2022/08/05 07:19:07;;;;;;;10.52;9.63;;;;;;;55.95;5.81;100447.38;5051966;28;20111;-60
2022/08/05 07:21:32;;;;;;;16.70;9.33;;;;;;;55.60;6.02;100449.25;5052266;28;20033;-61
2022/08/05 07:23:58;;;;;;;11.00;9.50;;;;;;;56.00;6.12;100449.84;5050889;28;20261;-59
2022/08/05 07:26:23;;;;;;;10.38;9.38;;;;;;;56.59;5.36;100448.03;5050549;28;20039;-58
2022/08/05 07:28:52;;;;;;;10.70;9.50;;;;;;;56.99;5.83;100438.97;5051545;28;20048;-60
2022/08/05 07:31:18;;;;;;;10.77;9.63;;;;;;;57.03;5.18;100442.59;5036575;28;20792;-59
2022/08/05 07:33:44;;;;;;;9.68;8.77;;;;;;;56.71;5.13;100449.56;5031491;28;20128;-60
2022/08/05 07:36:10;;;;;;;12.77;10.27;;;;;;;55.75;5.82;100442.22;5044799;28;20788;-59
2022/08/05 07:38:36;;;;;;;13.65;9.68;;;;;;;55.53;6.34;100432.09;5047129;28;20033;-59
2022/08/05 07:41:07;;;;;;;10.48;9.48;;;;;;;56.13;5.65;100435.75;5050817;28;20025;-61
2022/08/05 07:43:33;;;;;;;9.82;8.95;;;;;;;56.11;5.19;100423.06;5050461;28;20032;-59
2022/08/05 07:45:58;;;;;;;10.70;9.07;;;;;;;56.63;5.36;100422.94;5034880;28;20033;-59
2022/08/05 07:48:24;;;;;;;10.82;9.52;;;;;;;57.02;4.88;100432.34;5051135;28;20405;-59
2022/08/05 07:50:50;;;;;;;11.25;10.05;;;;;;;57.03;5.22;100427.41;5031458;28;20604;-60
2022/08/05 07:53:15;;;;;;;11.40;10.40;;;;;;;57.20;4.89;100403.34;5038243;28;20152;-58
2022/08/05 07:55:41;;;;;;;13.20;10.23;;;;;;;56.91;5.50;100411.53;5043201;28;20349;-61
2022/08/05 07:58:06;;;;;;;11.93;10.67;;;;;;;56.76;5.37;100413.78;5046830;28;20028;-60
2022/08/05 08:00:32;;;;;;;14.87;9.20;;;;;;;56.35;5.08;100403.97;5049406;28;20306;-61
2022/08/05 08:02:57;;;;;;;9.90;8.93;;;;;;;55.64;5.28;100422.16;5039371;28;20312;-60
2022/08/05 08:05:23;;;;;;;8.15;7.55;;;;;;;55.09;5.76;100420.84;5031256;28;20029;-60
2022/08/05 08:07:48;;;;;;;10.32;7.70;;;;;;;53.35;6.40;100409.50;5041350;28;20075;-60
2022/08/05 08:10:14;;;;;;;8.75;7.90;;;;;;;52.40;7.14;100402.47;5032266;28;20048;-65
2022/08/05 08:12:39;;;;;;;8.95;7.88;;;;;;;52.04;7.42;100403.00;5037758;28;20396;-62
2022/08/05 08:15:06;;;;;;;10.23;6.97;;;;;;;52.41;7.15;100409.03;5050393;28;20040;-63
2022/08/05 08:17:32;;;;;;;8.50;6.82;;;;;;;52.16;7.27;100398.22;5043814;28;20036;-62
2022/08/05 08:19:58;;;;;;;10.00;6.78;;;;;;;51.01;7.82;100395.78;5049579;28;20037;-61
2022/08/05 08:22:26;;;;;;;6.82;6.10;;;;;;;48.49;9.83;100402.97;5050408;28;20381;-62
2022/08/05 08:24:52;;;;;;;7.90;6.07;;;;;;;45.77;11.31;100406.25;5049957;28;20032;-60
2022/08/05 08:27:18;;;;;;;12.20;6.30;;;;;;;43.09;13.58;100407.34;5049210;28;20029;-64
2022/08/05 08:29:44;;;;;;;7.32;6.40;;;;;;;40.86;15.47;100399.97;5043904;28;20128;-60
2022/08/05 08:32:09;;;;;;;7.35;6.75;;;;;;;39.36;16.50;100385.09;5030768;28;20065;-61
2022/08/05 08:34:34;;;;;;;9.07;6.55;;;;;;;37.73;18.73;100403.25;5037601;28;20025;-61
2022/08/05 08:37:00;;;;;;;7.40;6.65;;;;;;;36.82;19.55;100415.53;5034397;28;20104;-60
2022/08/05 08:39:26;;;;;;;8.93;5.97;;;;;;;36.36;19.39;100403.41;5041209;28;20377;-60
2022/08/05 08:41:55;;;;;;;9.48;6.45;;;;;;;36.03;19.94;100414.88;5047377;28;20029;-61
2022/08/05 08:44:22;;;;;;;7.15;6.40;;;;;;;35.50;20.68;100421.53;5034764;28;20057;-59
2022/08/05 08:46:48;;;;;;;8.98;6.28;;;;;;;34.91;21.57;100415.28;5052090;28;20109;-59
2022/08/05 08:49:14;;;;;;;6.78;6.00;;;;;;;34.52;22.31;100410.09;5039140;28;20118;-60
2022/08/05 08:51:45;;;;;;;6.88;6.18;;;;;;;34.41;22.08;100416.69;5038669;28;20025;-59
2022/08/05 08:54:11;;;;;;;9.40;6.57;;;;;;;34.20;22.70;100411.84;5052812;28;20025;-59
2022/08/05 08:56:40;;;;;;;7.47;6.55;;;;;;;34.20;22.44;100422.94;5035910;28;20044;-61
2022/08/05 08:59:05;;;;;;;9.00;5.93;;;;;;;33.88;22.99;100404.38;5035603;28;20095;-62
2022/08/05 09:01:31;;;;;;;11.77;6.25;;;;;;;33.86;23.47;100400.19;5052053;28;20028;-60
2022/08/05 09:03:58;;;;;;;9.73;6.35;;;;;;;33.60;23.67;100411.94;5054010;28;20373;-59
2022/08/05 09:06:28;;;;;;;7.88;5.85;;;;;;;33.41;23.50;100410.59;5042260;28;20044;-60
2022/08/05 09:08:54;;;;;;;6.75;6.15;;;;;;;33.15;23.62;100346.53;5041568;28;20068;-60
2022/08/05 09:11:20;;;;;;;7.95;6.53;;;;;;;33.22;23.17;100386.00;5033758;28;20057;-58
2022/08/05 09:13:46;;;;;;;6.47;5.88;;;;;;;33.22;23.77;100397.09;5034089;28;20087;-61
2022/08/05 09:16:12;;;;;;;8.48;6.72;;;;;;;33.29;24.01;100403.28;5054087;28;20444;-60
2022/08/05 09:18:38;;;;;;;7.65;6.85;;;;;;;33.39;24.36;100388.66;5051299;28;20021;-60
2022/08/05 09:21:04;;;;;;;10.27;6.65;;;;;;;33.55;24.24;100377.72;5033762;28;20528;-64
2022/08/05 09:23:29;;;;;;;9.65;6.75;;;;;;;33.85;23.80;100370.75;5034221;28;20041;-59
2022/08/05 09:26:24;;;;;;;8.75;7.05;;;;;;;34.43;22.78;100387.50;5053613;28;20033;-59
2022/08/05 09:28:57;;;;;;;8.88;7.28;;;;;;;34.55;22.69;100381.75;5046513;28;20037;-60
2022/08/05 09:31:23;;;;;;;12.15;6.55;;;;;;;34.59;22.79;100359.81;5053293;28;20069;-60
2022/08/05 09:34:00;;;;;;;8.02;6.95;;;;;;;34.82;22.44;100371.56;5048837;28;20029;-61
2022/08/05 09:36:38;;;;;;;8.52;6.85;;;;;;;34.86;22.59;100373.53;5033538;28;20076;-58
2022/08/05 09:39:06;;;;;;;10.60;7.18;;;;;;;34.71;22.30;100382.66;5037704;28;20041;-62
2022/08/05 09:41:32;;;;;;;9.80;7.20;;;;;;;34.54;22.55;100365.38;5034346;28;20038;-64
2022/08/05 09:43:58;;;;;;;10.77;7.28;;;;;;;34.44;22.78;100363.34;5035562;28;20165;-60
2022/08/05 09:46:32;;;;;;;9.43;7.60;;;;;;;34.59;22.78;100382.88;5034718;28;20553;-59
2022/08/05 09:49:03;;;;;;;7.67;6.93;;;;;;;34.70;22.57;100375.41;5033728;28;20083;-59
2022/08/05 09:51:40;;;;;;;7.82;6.40;;;;;;;34.71;22.40;100365.97;5041476;28;20115;-59
2022/08/05 09:54:07;;;;;;;9.90;7.45;;;;;;;34.46;22.97;100359.16;5035617;28;20059;-60
2022/08/05 09:56:37;;;;;;;10.23;7.22;;;;;;;34.56;22.63;100365.94;5052729;28;20543;-58
2022/08/05 09:59:06;;;;;;;9.82;7.00;;;;;;;34.35;22.42;100346.34;5035597;28;20047;-60
2022/08/05 10:01:35;;;;;;;7.97;7.18;;;;;;;34.25;22.23;100368.53;5038130;28;20029;-56
2022/08/05 10:04:11;;;;;;;8.85;7.35;;;;;;;34.22;22.44;100376.28;5049222;28;20033;-59
2022/08/05 10:06:40;;;;;;;8.43;7.47;;;;;;;34.06;22.48;100380.91;5032368;28;20030;-59
2022/08/05 10:09:11;;;;;;;8.73;7.93;;;;;;;33.72;22.85;100378.44;5044040;28;20079;-61
2022/08/05 10:11:38;;;;;;;7.85;6.75;;;;;;;33.40;22.71;100365.38;5052779;28;20057;-59
2022/08/05 10:14:24;;;;;;;7.90;7.10;;;;;;;33.54;22.56;100376.91;5046867;28;20429;-59
2022/08/05 10:16:51;;;;;;;8.05;7.25;;;;;;;33.35;22.80;100362.53;5034199;28;20030;-59
2022/08/05 10:19:17;;;;;;;8.43;6.95;;;;;;;33.33;22.73;100356.41;5050896;28;20516;-59
2022/08/05 10:21:44;;;;;;;8.50;7.63;;;;;;;33.36;23.25;100365.06;5050408;28;20033;-60
2022/08/05 10:24:12;;;;;;;10.13;7.30;;;;;;;33.24;23.26;100358.00;5051454;28;20025;-58
2022/08/05 10:26:42;;;;;;;11.10;6.93;;;;;;;33.24;23.52;100358.00;5052807;28;20035;-57
2022/08/05 10:29:08;;;;;;;11.13;7.45;;;;;;;33.36;23.68;100353.97;5051614;28;20036;-59
2022/08/05 10:31:35;;;;;;;9.15;8.10;;;;;;;33.54;23.03;100357.47;5037843;28;20385;-57
2022/08/05 10:34:00;;;;;;;9.68;7.85;;;;;;;33.67;22.85;100352.56;5032751;28;20481;-58
2022/08/05 10:36:26;;;;;;;12.15;7.97;;;;;;;33.71;23.26;100359.25;5033185;28;20112;-57
2022/08/05 10:39:11;;;;;;;8.98;8.18;;;;;;;33.87;22.86;100358.28;5032468;28;20052;-55
2022/08/05 10:41:46;;;;;;;11.52;8.13;;;;;;;33.97;22.72;100356.69;5041537;28;20458;-59
2022/08/05 10:44:17;;;;;;;9.43;8.45;;;;;;;34.07;23.00;100353.97;5032247;28;20025;-60
2022/08/05 10:46:45;;;;;;;10.05;8.05;;;;;;;34.02;22.92;100354.78;5036241;28;20033;-59
2022/08/05 10:49:11;;;;;;;8.70;7.90;;;;;;;34.01;22.71;100349.50;5052156;28;20031;-60
2022/08/05 10:51:48;;;;;;;12.75;7.75;;;;;;;34.03;22.77;100352.84;5051828;28;20063;-60
2022/08/05 10:54:15;;;;;;;8.93;8.13;;;;;;;33.80;23.06;100352.13;5052173;28;20401;-59
2022/08/05 10:56:52;;;;;;;10.00;8.18;;;;;;;33.50;23.26;100353.53;5051594;28;20033;-59
2022/08/05 10:59:30;;;;;;;9.52;7.95;;;;;;;33.43;23.45;100348.22;5052225;28;20473;-60
2022/08/05 11:02:11;;;;;;;8.18;7.45;;;;;;;33.47;23.29;100351.28;5051156;28;20036;-61
2022/08/05 11:04:47;;;;;;;8.60;7.80;;;;;;;33.52;23.75;100356.91;5052271;28;20033;-61
2022/08/05 11:07:16;;;;;;;8.38;7.55;;;;;;;33.50;23.27;100353.53;5051860;28;20387;-59
2022/08/05 11:09:50;;;;;;;8.85;8.05;;;;;;;33.79;23.19;100351.28;5051278;28;20029;-61
2022/08/05 11:12:35;;;;;;;11.80;8.77;;;;;;;34.03;22.99;100339.78;5052517;28;20060;-59
2022/08/05 11:15:04;;;;;;;10.18;8.40;;;;;;;34.03;22.67;100345.34;5051860;28;20029;-60
2022/08/05 11:17:33;;;;;;;10.70;7.97;;;;;;;34.16;22.90;100343.22;5051897;28;20033;-60
2022/08/05 11:19:59;;;;;;;13.20;8.00;;;;;;;34.31;23.16;100342.44;5052051;28;20533;-60
2022/08/05 11:22:47;;;;;;;9.63;8.68;;;;;;;34.58;22.50;100330.34;5051899;28;20170;-59